| time (UTC) | temp C | wind direction | speed KPH | gust KPH | rain 1hr cm | rain 24hr cm | rain mn cm | humidity % | barometer mb |
| 20260905211923 | 13 | 280 | 19.3 | 0.0 | 0.00 | 0.00 | 0.00 | 58 | |
| 20260905201925 | 16 | 280 | 19.3 | 0.0 | 0.00 | 0.00 | 0.00 | 55 | |
| 20260905192354 | 17 | 270 | 19.3 | 0.0 | 0.00 | 0.00 | 0.00 | 51 | |
| 20260905181942 | 17 | 270 | 22.5 | 0.0 | 0.00 | 0.00 | 0.00 | 55 | |
| 20260905171942 | 18 | 270 | 22.5 | 0.0 | 0.00 | 0.00 | 0.00 | 55 | |
| 20260905162348 | 20 | 270 | 22.5 | 0.0 | 0.00 | 0.00 | 0.00 | 52 | |
| 20260905151917 | 20 | 260 | 19.3 | 38.6 | 0.00 | 0.00 | 0.00 | 49 | |
| 20260905141834 | 18 | 260 | 19.3 | 46.7 | 0.00 | 0.00 | 0.00 | 55 | |
| 20260905132125 | 18 | 260 | 19.3 | 46.7 | 0.00 | 0.00 | 0.00 | 55 | |
| 20260905122039 | 18 | 270 | 14.5 | 41.8 | 0.00 | 0.00 | 0.00 | 52 | |
| 20260905111948 | 18 | 270 | 14.5 | 41.8 | 0.00 | 0.00 | 0.00 | 55 | |
| 20260905102426 | 17 | 280 | 14.5 | 35.4 | 0.00 | 0.00 | 0.00 | 59 | |
| 20260905092005 | 17 | 280 | 14.5 | 35.4 | 0.00 | 0.00 | 0.00 | 67 | |
| 20260905081929 | 15 | 280 | 14.5 | 32.2 | 0.00 | 0.00 | 0.00 | 77 | |
| 20260905072230 | 13 | 280 | 14.5 | 0.0 | 0.00 | 0.00 | 0.00 | 87 | |
| 20260905061930 | 12 | 270 | 14.5 | 0.0 | 0.00 | 0.00 | 0.00 | 87 | |
| 20260905051928 | 12 | 270 | 14.5 | 0.0 | 0.00 | 0.00 | 0.00 | 87 | |
| 20260905042332 | 12 | 270 | 14.5 | 0.0 | 0.00 | 0.00 | 0.00 | 87 | |
| 20260905031929 | 15 | 270 | 14.5 | 0.0 | 0.00 | 0.00 | 0.00 | 72 | |
| 20260905021929 | 16 | 260 | 14.5 | 0.0 | 0.00 | 0.00 | 0.00 | 67 | |
| 20260905012231 | 17 | 250 | 19.3 | 41.8 | 0.00 | 0.00 | 0.00 | 63 | |
| 20260905001943 | 17 | 240 | 19.3 | 41.8 | 0.00 | 0.00 | 0.00 | 72 | |
| 20260904232026 | 22 | 240 | 19.3 | 0.0 | 0.00 | 0.00 | 0.00 | 56 |